Cuxhaven, Germany

4:39 AM CET on March 06, 2015 (GMT +0100)
karpa-cuxhaven | Change Station
CLOSE
Current Station
Personal Weather Station
Location: Cuxhaven, NIEDERSACHSEN
Elevation: 3 ft
Nearby Weather Stations

Elev 3 ft 53.86 °N, 8.67 °E | Updated 27 minutes ago

Mostly Cloudy
Mostly Cloudy
41.0 °F
Feels Like 41 °F
N
0.0
Wind Variable Wind from SW
Gusts 6.0 mph

Today
High -- | Low -- °F
--% Chance of Precip.
Yesterday
High -- | Low -- °F
Precip. -- in
7:02 AM 6:11 PM
Full, 100% visible
Pressure 30.48 in
Visibility 6.2 miles
Clouds Mostly Cloudy 4700 ft
Windchill 41 °F
Dew Point 39 °F
Humidity 92%
Rainfall in
Snow Depth Not available.
UV 3.0 out of 12
Pollen Not available.
Air Quality Not available.
Flu Activity Not available.
METAR ETMN 060320Z 23009KT 9999 BKN047 05/03 Q1032 BLU

More Conditions Fewer Conditions

Pressure 30.48 in
Visibility 6.2 miles
Clouds Mostly Cloudy 4700 ft
Windchill 41 °F
Dew Point 39 °F
Humidity 92%
Rainfall in
Snow Depth Not available.
UV 3.0 out of 12
Pollen Not available.
Air Quality Not available.
Flu Activity Not available.
METAR ETMN 060320Z 23009KT 9999 BKN047 05/03 Q1032 BLU

More Conditions Fewer Conditions

10-Day Weather Forecast

Almanac

Astronomy

Mar. 06, 2015 Rise Set
Actual Time
Civil Twilight
Nautical Twilight
Astronomical Twilight
Moon
Length of Visible Light
Length of Day
Tomorrow will be .
, % of the Moon is Illuminated

Today's Extremes

Country Highs Country Lows

Community

WunderPhotos

Upload Photos

1,803,166 photos uploaded!

WunderBlogs® & News

Nearby

Air Quality

  Air Quality AQ Index Pollutant
Not available.

Snow Depth

Station Depth Elevation

Earthquake Activity

City Distance Mag. Time & Date
Minimum magnitude displayed is 2.5.

Coastal Water Temperatures

Place Temperature

Nearby Weather Stations